Terminal Aerodrome Forecast
Issued by NWS Milwaukee/Sullivan, WI

Home | Current Version | Previous Version | Text Only | Print | Product List | Glossary On
Versions: 1 2 3 4 5 6 7 8 9 10 11 12 13 14 15 16 17 18 19 20 21 22 23 24 25 26 27 28 29 30 31 32 33 34 35 36 37 38 39 40 41 42 43 44 45 46 47 48 49 50
000
FTUS43 KMKX 182342 RRA
TAFMKE
TAF
KMKE 182342Z 1900/2006 14007KT P6SM FEW060 BKN150
     FM190200 VRB04KT P6SM SCT070
     FM191000 VRB03KT 5SM BR VCSH SCT015 OVC035
     FM191200 02005KT 4SM BR VCSH OVC015
     FM191400 02007KT 5SM BR OVC007
     FM192000 03009KT P6SM BKN011
     FM200000 03009KT P6SM BKN040=

USA.gov is the U.S. government's official web portal to all federal, state and local government web resources and services.